sensor_id;sensor_type;location;lat;lon;timestamp;P1;durP1;ratioP1;P2;durP2;ratioP2
1416;SDS011;703;51.162;13.574;2024-03-07T02:57:20;29.50;;;23.33;;
1416;SDS011;703;51.162;13.574;2024-03-07T02:59:46;43.53;;;29.40;;
1416;SDS011;703;51.162;13.574;2024-03-07T03:02:12;25.77;;;23.00;;
1416;SDS011;703;51.162;13.574;2024-03-07T03:04:37;39.60;;;32.10;;
1416;SDS011;703;51.162;13.574;2024-03-07T03:07:03;34.70;;;26.67;;
1416;SDS011;703;51.162;13.574;2024-03-07T03:09:30;33.77;;;27.30;;
1416;SDS011;703;51.162;13.574;2024-03-07T03:11:58;32.30;;;25.37;;
1416;SDS011;703;51.162;13.574;2024-03-07T03:14:24;48.17;;;30.17;;
1416;SDS011;703;51.162;13.574;2024-03-07T03:16:50;28.57;;;25.10;;
1416;SDS011;703;51.162;13.574;2024-03-07T03:19:16;32.77;;;24.40;;
1416;SDS011;703;51.162;13.574;2024-03-07T03:21:42;35.77;;;25.60;;
1416;SDS011;703;51.162;13.574;2024-03-07T03:24:08;37.67;;;25.00;;
1416;SDS011;703;51.162;13.574;2024-03-07T03:26:34;40.10;;;26.17;;
1416;SDS011;703;51.162;13.574;2024-03-07T03:29:00;29.87;;;23.10;;
1416;SDS011;703;51.162;13.574;2024-03-07T03:31:26;36.53;;;25.27;;
1416;SDS011;703;51.162;13.574;2024-03-07T03:33:52;31.97;;;23.63;;
1416;SDS011;703;51.162;13.574;2024-03-07T03:36:18;29.67;;;23.10;;
1416;SDS011;703;51.162;13.574;2024-03-07T03:38:44;29.67;;;25.43;;
1416;SDS011;703;51.162;13.574;2024-03-07T03:41:14;34.97;;;23.63;;
1416;SDS011;703;51.162;13.574;2024-03-07T03:43:40;40.53;;;33.83;;
1416;SDS011;703;51.162;13.574;2024-03-07T03:46:09;27.70;;;23.50;;
1416;SDS011;703;51.162;13.574;2024-03-07T03:48:35;33.03;;;24.23;;
1416;SDS011;703;51.162;13.574;2024-03-07T03:51:02;43.50;;;27.03;;
1416;SDS011;703;51.162;13.574;2024-03-07T03:53:28;38.93;;;26.63;;
1416;SDS011;703;51.162;13.574;2024-03-07T03:55:54;33.43;;;24.33;;
1416;SDS011;703;51.162;13.574;2024-03-07T03:58:22;40.13;;;24.13;;
1416;SDS011;703;51.162;13.574;2024-03-07T04:00:48;42.30;;;29.43;;
1416;SDS011;703;51.162;13.574;2024-03-07T04:03:14;32.77;;;29.40;;
1416;SDS011;703;51.162;13.574;2024-03-07T04:05:39;33.77;;;28.87;;
1416;SDS011;703;51.162;13.574;2024-03-07T04:08:06;33.53;;;28.27;;
1416;SDS011;703;51.162;13.574;2024-03-07T04:10:32;39.60;;;27.57;;
1416;SDS011;703;51.162;13.574;2024-03-07T04:12:58;29.77;;;26.50;;
1416;SDS011;703;51.162;13.574;2024-03-07T04:15:24;46.97;;;27.80;;
1416;SDS011;703;51.162;13.574;2024-03-07T04:17:52;42.87;;;26.57;;
1416;SDS011;703;51.162;13.574;2024-03-07T04:20:18;38.90;;;26.03;;
1416;SDS011;703;51.162;13.574;2024-03-07T04:22:44;35.33;;;29.27;;
1416;SDS011;703;51.162;13.574;2024-03-07T04:25:10;50.37;;;25.93;;
1416;SDS011;703;51.162;13.574;2024-03-07T04:27:37;29.43;;;25.17;;
1416;SDS011;703;51.162;13.574;2024-03-07T04:30:04;35.77;;;28.40;;
1416;SDS011;703;51.162;13.574;2024-03-07T04:32:31;31.23;;;25.70;;
1416;SDS011;703;51.162;13.574;2024-03-07T04:34:57;37.10;;;30.00;;
1416;SDS011;703;51.162;13.574;2024-03-07T04:37:23;42.93;;;28.40;;
1416;SDS011;703;51.162;13.574;2024-03-07T04:39:49;35.50;;;27.13;;
1416;SDS011;703;51.162;13.574;2024-03-07T04:42:15;36.87;;;29.70;;
1416;SDS011;703;51.162;13.574;2024-03-07T04:44:40;35.60;;;23.90;;
1416;SDS011;703;51.162;13.574;2024-03-07T04:47:06;41.77;;;28.33;;
1416;SDS011;703;51.162;13.574;2024-03-07T04:49:33;28.83;;;25.80;;
1416;SDS011;703;51.162;13.574;2024-03-07T04:52:00;31.33;;;24.77;;
1416;SDS011;703;51.162;13.574;2024-03-07T04:54:26;37.13;;;29.50;;
1416;SDS011;703;51.162;13.574;2024-03-07T04:56:53;39.43;;;31.83;;
1416;SDS011;703;51.162;13.574;2024-03-07T04:59:19;44.97;;;26.97;;
1416;SDS011;703;51.162;13.574;2024-03-07T05:01:46;35.50;;;26.57;;
1416;SDS011;703;51.162;13.574;2024-03-07T05:04:12;40.27;;;27.60;;
1416;SDS011;703;51.162;13.574;2024-03-07T05:06:39;25.10;;;22.47;;
1416;SDS011;703;51.162;13.574;2024-03-07T05:09:05;27.83;;;24.93;;
1416;SDS011;703;51.162;13.574;2024-03-07T05:11:35;36.03;;;24.13;;
1416;SDS011;703;51.162;13.574;2024-03-07T05:14:01;31.63;;;24.10;;
1416;SDS011;703;51.162;13.574;2024-03-07T05:16:27;29.73;;;23.77;;
1416;SDS011;703;51.162;13.574;2024-03-07T05:18:54;36.00;;;26.70;;
1416;SDS011;703;51.162;13.574;2024-03-07T05:21:23;26.03;;;21.33;;
1416;SDS011;703;51.162;13.574;2024-03-07T05:23:58;26.93;;;24.00;;
1416;SDS011;703;51.162;13.574;2024-03-07T05:26:25;37.47;;;28.27;;
1416;SDS011;703;51.162;13.574;2024-03-07T05:28:58;32.73;;;24.07;;
1416;SDS011;703;51.162;13.574;2024-03-07T05:31:24;33.77;;;24.90;;
1416;SDS011;703;51.162;13.574;2024-03-07T05:33:50;34.17;;;27.03;;
1416;SDS011;703;51.162;13.574;2024-03-07T05:36:17;26.20;;;21.20;;
1416;SDS011;703;51.162;13.574;2024-03-07T05:38:43;35.20;;;25.83;;
1416;SDS011;703;51.162;13.574;2024-03-07T05:41:09;31.43;;;26.57;;
1416;SDS011;703;51.162;13.574;2024-03-07T05:43:35;36.40;;;27.87;;
1416;SDS011;703;51.162;13.574;2024-03-07T05:46:01;32.73;;;26.50;;
1416;SDS011;703;51.162;13.574;2024-03-07T05:48:29;25.23;;;22.17;;
1416;SDS011;703;51.162;13.574;2024-03-07T05:50:54;36.73;;;25.40;;
1416;SDS011;703;51.162;13.574;2024-03-07T05:53:21;30.87;;;26.37;;
1416;SDS011;703;51.162;13.574;2024-03-07T05:55:47;34.13;;;23.20;;
1416;SDS011;703;51.162;13.574;2024-03-07T05:58:13;26.23;;;23.60;;
1416;SDS011;703;51.162;13.574;2024-03-07T06:00:39;30.73;;;20.47;;
1416;SDS011;703;51.162;13.574;2024-03-07T06:03:05;32.93;;;21.33;;
1416;SDS011;703;51.162;13.574;2024-03-07T06:05:33;31.60;;;22.43;;
1416;SDS011;703;51.162;13.574;2024-03-07T06:07:59;28.27;;;23.00;;
1416;SDS011;703;51.162;13.574;2024-03-07T06:10:25;26.67;;;23.77;;
1416;SDS011;703;51.162;13.574;2024-03-07T06:12:52;30.60;;;21.30;;
1416;SDS011;703;51.162;13.574;2024-03-07T06:15:18;37.70;;;22.87;;
1416;SDS011;703;51.162;13.574;2024-03-07T06:17:45;29.70;;;22.33;;
1416;SDS011;703;51.162;13.574;2024-03-07T06:20:12;30.53;;;23.03;;
1416;SDS011;703;51.162;13.574;2024-03-07T06:22:50;25.93;;;21.30;;
1416;SDS011;703;51.162;13.574;2024-03-07T06:25:17;26.00;;;23.40;;
1416;SDS011;703;51.162;13.574;2024-03-07T06:27:45;24.70;;;21.30;;
1416;SDS011;703;51.162;13.574;2024-03-07T06:30:17;28.70;;;24.57;;
1416;SDS011;703;51.162;13.574;2024-03-07T06:32:44;23.17;;;20.30;;
1416;SDS011;703;51.162;13.574;2024-03-07T06:35:10;27.90;;;25.00;;
1416;SDS011;703;51.162;13.574;2024-03-07T06:37:36;31.10;;;21.47;;
1416;SDS011;703;51.162;13.574;2024-03-07T06:40:02;24.20;;;21.60;;
1416;SDS011;703;51.162;13.574;2024-03-07T06:42:34;24.60;;;22.20;;
1416;SDS011;703;51.162;13.574;2024-03-07T06:45:01;22.83;;;20.37;;
1416;SDS011;703;51.162;13.574;2024-03-07T06:47:27;28.63;;;25.67;;
1416;SDS011;703;51.162;13.574;2024-03-07T06:49:53;28.90;;;23.80;;
1416;SDS011;703;51.162;13.574;2024-03-07T06:52:21;32.20;;;22.77;;
1416;SDS011;703;51.162;13.574;2024-03-07T06:54:47;26.30;;;21.87;;
1416;SDS011;703;51.162;13.574;2024-03-07T06:57:13;26.83;;;22.70;;
1416;SDS011;703;51.162;13.574;2024-03-07T06:59:38;27.87;;;23.23;;
1416;SDS011;703;51.162;13.574;2024-03-07T07:02:04;25.37;;;22.37;;
1416;SDS011;703;51.162;13.574;2024-03-07T07:04:33;24.77;;;21.87;;
1416;SDS011;703;51.162;13.574;2024-03-07T07:07:09;20.03;;;18.43;;
1416;SDS011;703;51.162;13.574;2024-03-07T07:09:37;23.93;;;19.40;;
1416;SDS011;703;51.162;13.574;2024-03-07T07:12:03;35.13;;;25.10;;
1416;SDS011;703;51.162;13.574;2024-03-07T07:14:29;33.83;;;24.50;;
1416;SDS011;703;51.162;13.574;2024-03-07T07:16:55;27.30;;;23.47;;
1416;SDS011;703;51.162;13.574;2024-03-07T07:19:21;22.30;;;20.20;;
1416;SDS011;703;51.162;13.574;2024-03-07T07:21:47;30.93;;;20.67;;
1416;SDS011;703;51.162;13.574;2024-03-07T07:24:18;26.00;;;19.20;;
1416;SDS011;703;51.162;13.574;2024-03-07T07:26:44;32.33;;;24.23;;
1416;SDS011;703;51.162;13.574;2024-03-07T07:29:10;23.13;;;21.27;;
1416;SDS011;703;51.162;13.574;2024-03-07T07:31:36;31.30;;;26.00;;
1416;SDS011;703;51.162;13.574;2024-03-07T07:34:02;25.30;;;20.00;;
1416;SDS011;703;51.162;13.574;2024-03-07T07:36:29;29.60;;;21.50;;
1416;SDS011;703;51.162;13.574;2024-03-07T07:38:55;23.57;;;19.50;;
1416;SDS011;703;51.162;13.574;2024-03-07T07:41:21;20.10;;;18.20;;
1416;SDS011;703;51.162;13.574;2024-03-07T07:43:47;27.60;;;18.40;;
1416;SDS011;703;51.162;13.574;2024-03-07T07:46:13;24.33;;;21.73;;
1416;SDS011;703;51.162;13.574;2024-03-07T07:48:41;24.33;;;19.83;;
1416;SDS011;703;51.162;13.574;2024-03-07T07:51:07;22.27;;;19.90;;
1416;SDS011;703;51.162;13.574;2024-03-07T07:53:34;28.67;;;22.60;;
1416;SDS011;703;51.162;13.574;2024-03-07T07:56:00;23.03;;;20.70;;
1416;SDS011;703;51.162;13.574;2024-03-07T07:58:26;27.33;;;19.50;;
1416;SDS011;703;51.162;13.574;2024-03-07T08:00:51;23.07;;;17.80;;
1416;SDS011;703;51.162;13.574;2024-03-07T08:03:17;43.27;;;24.07;;
1416;SDS011;703;51.162;13.574;2024-03-07T08:05:44;23.20;;;20.70;;
1416;SDS011;703;51.162;13.574;2024-03-07T08:08:10;25.90;;;23.20;;
1416;SDS011;703;51.162;13.574;2024-03-07T08:10:39;22.33;;;20.13;;
1416;SDS011;703;51.162;13.574;2024-03-07T08:13:06;25.00;;;18.80;;
1416;SDS011;703;51.162;13.574;2024-03-07T08:15:33;27.20;;;23.90;;
1416;SDS011;703;51.162;13.574;2024-03-07T08:17:59;20.63;;;18.00;;
1416;SDS011;703;51.162;13.574;2024-03-07T08:20:25;17.40;;;15.60;;
1416;SDS011;703;51.162;13.574;2024-03-07T08:22:52;18.20;;;16.30;;
1416;SDS011;703;51.162;13.574;2024-03-07T08:25:19;19.23;;;17.17;;
1416;SDS011;703;51.162;13.574;2024-03-07T08:27:47;19.53;;;16.63;;
1416;SDS011;703;51.162;13.574;2024-03-07T08:30:13;19.40;;;17.27;;
1416;SDS011;703;51.162;13.574;2024-03-07T08:32:39;21.27;;;19.07;;
1416;SDS011;703;51.162;13.574;2024-03-07T08:35:06;22.57;;;20.37;;
1416;SDS011;703;51.162;13.574;2024-03-07T08:37:37;22.37;;;19.90;;
1416;SDS011;703;51.162;13.574;2024-03-07T08:40:03;19.63;;;17.67;;
1416;SDS011;703;51.162;13.574;2024-03-07T08:42:31;25.20;;;20.23;;
1416;SDS011;703;51.162;13.574;2024-03-07T08:44:58;27.23;;;20.67;;
1416;SDS011;703;51.162;13.574;2024-03-07T08:47:24;20.83;;;18.77;;
1416;SDS011;703;51.162;13.574;2024-03-07T08:49:50;17.23;;;15.87;;
1416;SDS011;703;51.162;13.574;2024-03-07T08:52:16;20.17;;;17.60;;
1416;SDS011;703;51.162;13.574;2024-03-07T08:54:43;23.53;;;17.17;;
1416;SDS011;703;51.162;13.574;2024-03-07T08:57:09;23.07;;;16.07;;
1416;SDS011;703;51.162;13.574;2024-03-07T08:59:35;19.57;;;17.70;;
1416;SDS011;703;51.162;13.574;2024-03-07T09:02:01;19.83;;;17.47;;
1416;SDS011;703;51.162;13.574;2024-03-07T09:04:27;18.90;;;17.17;;
1416;SDS011;703;51.162;13.574;2024-03-07T09:06:53;22.30;;;16.50;;
1416;SDS011;703;51.162;13.574;2024-03-07T09:09:19;19.07;;;16.90;;
1416;SDS011;703;51.162;13.574;2024-03-07T09:11:46;17.30;;;15.90;;
1416;SDS011;703;51.162;13.574;2024-03-07T09:14:12;18.17;;;16.30;;
1416;SDS011;703;51.162;13.574;2024-03-07T09:16:38;15.37;;;13.97;;
1416;SDS011;703;51.162;13.574;2024-03-07T09:19:04;18.93;;;17.13;;
1416;SDS011;703;51.162;13.574;2024-03-07T09:21:30;20.90;;;17.87;;
1416;SDS011;703;51.162;13.574;2024-03-07T09:23:56;26.60;;;16.97;;
1416;SDS011;703;51.162;13.574;2024-03-07T09:26:22;18.13;;;16.33;;
1416;SDS011;703;51.162;13.574;2024-03-07T09:28:48;18.03;;;15.90;;
1416;SDS011;703;51.162;13.574;2024-03-07T09:31:14;16.70;;;15.30;;
1416;SDS011;703;51.162;13.574;2024-03-07T09:33:40;15.67;;;14.37;;
1416;SDS011;703;51.162;13.574;2024-03-07T09:36:06;16.53;;;14.53;;
1416;SDS011;703;51.162;13.574;2024-03-07T09:38:33;24.47;;;16.73;;
1416;SDS011;703;51.162;13.574;2024-03-07T09:40:59;17.03;;;14.70;;
1416;SDS011;703;51.162;13.574;2024-03-07T09:43:28;17.03;;;15.60;;
1416;SDS011;703;51.162;13.574;2024-03-07T09:45:56;24.43;;;21.93;;
1416;SDS011;703;51.162;13.574;2024-03-07T09:48:22;18.83;;;16.97;;
1416;SDS011;703;51.162;13.574;2024-03-07T09:50:52;20.90;;;18.87;;
1416;SDS011;703;51.162;13.574;2024-03-07T09:53:20;26.47;;;18.23;;
1416;SDS011;703;51.162;13.574;2024-03-07T09:55:47;20.97;;;18.90;;
1416;SDS011;703;51.162;13.574;2024-03-07T09:58:13;21.80;;;19.53;;
1416;SDS011;703;51.162;13.574;2024-03-07T10:00:41;17.90;;;16.50;;
1416;SDS011;703;51.162;13.574;2024-03-07T10:03:10;20.57;;;18.77;;
1416;SDS011;703;51.162;13.574;2024-03-07T10:05:41;23.00;;;20.90;;
1416;SDS011;703;51.162;13.574;2024-03-07T10:08:07;23.73;;;20.93;;
1416;SDS011;703;51.162;13.574;2024-03-07T10:10:33;20.87;;;18.67;;
1416;SDS011;703;51.162;13.574;2024-03-07T10:12:59;25.00;;;20.10;;
1416;SDS011;703;51.162;13.574;2024-03-07T10:15:32;21.27;;;19.13;;
1416;SDS011;703;51.162;13.574;2024-03-07T10:17:59;18.77;;;16.87;;
1416;SDS011;703;51.162;13.574;2024-03-07T10:20:25;17.63;;;16.00;;
1416;SDS011;703;51.162;13.574;2024-03-07T10:22:52;27.33;;;19.97;;
1416;SDS011;703;51.162;13.574;2024-03-07T10:25:21;16.10;;;14.80;;
1416;SDS011;703;51.162;13.574;2024-03-07T10:27:50;24.00;;;20.10;;
1416;SDS011;703;51.162;13.574;2024-03-07T10:30:16;28.03;;;20.33;;
1416;SDS011;703;51.162;13.574;2024-03-07T10:32:46;18.90;;;17.20;;
1416;SDS011;703;51.162;13.574;2024-03-07T10:35:11;19.03;;;17.07;;
1416;SDS011;703;51.162;13.574;2024-03-07T10:37:39;18.80;;;16.80;;
1416;SDS011;703;51.162;13.574;2024-03-07T10:40:05;21.20;;;19.30;;
1416;SDS011;703;51.162;13.574;2024-03-07T10:42:44;17.03;;;15.27;;
1416;SDS011;703;51.162;13.574;2024-03-07T10:45:11;16.60;;;15.00;;
1416;SDS011;703;51.162;13.574;2024-03-07T10:47:37;16.27;;;15.03;;
1416;SDS011;703;51.162;13.574;2024-03-07T10:52:39;19.00;;;16.90;;
1416;SDS011;703;51.162;13.574;2024-03-07T10:55:15;22.53;;;19.13;;
1416;SDS011;703;51.162;13.574;2024-03-07T10:57:49;19.27;;;17.20;;
1416;SDS011;703;51.162;13.574;2024-03-07T11:00:20;23.53;;;17.27;;
1416;SDS011;703;51.162;13.574;2024-03-07T11:03:00;16.17;;;14.37;;
1416;SDS011;703;51.162;13.574;2024-03-07T11:05:27;14.20;;;13.03;;
1416;SDS011;703;51.162;13.574;2024-03-07T11:07:54;21.13;;;16.37;;
1416;SDS011;703;51.162;13.574;2024-03-07T11:10:22;15.50;;;14.17;;
1416;SDS011;703;51.162;13.574;2024-03-07T11:12:48;18.20;;;16.70;;
1416;SDS011;703;51.162;13.574;2024-03-07T11:15:16;18.20;;;16.40;;
1416;SDS011;703;51.162;13.574;2024-03-07T11:17:45;17.13;;;15.67;;
1416;SDS011;703;51.162;13.574;2024-03-07T11:22:46;16.83;;;15.07;;
1416;SDS011;703;51.162;13.574;2024-03-07T11:25:12;21.97;;;16.17;;
1416;SDS011;703;51.162;13.574;2024-03-07T11:27:38;21.30;;;16.17;;
1416;SDS011;703;51.162;13.574;2024-03-07T11:30:05;20.43;;;15.50;;
1416;SDS011;703;51.162;13.574;2024-03-07T11:32:34;18.10;;;15.93;;
1416;SDS011;703;51.162;13.574;2024-03-07T11:35:03;18.03;;;15.37;;
1416;SDS011;703;51.162;13.574;2024-03-07T11:37:39;24.67;;;17.80;;
1416;SDS011;703;51.162;13.574;2024-03-07T11:40:08;14.90;;;13.60;;
1416;SDS011;703;51.162;13.574;2024-03-07T11:42:43;19.47;;;17.50;;
1416;SDS011;703;51.162;13.574;2024-03-07T11:45:09;17.33;;;15.93;;
1416;SDS011;703;51.162;13.574;2024-03-07T11:47:45;18.40;;;14.57;;
1416;SDS011;703;51.162;13.574;2024-03-07T11:50:11;20.90;;;18.10;;
1416;SDS011;703;51.162;13.574;2024-03-07T11:52:38;20.13;;;18.30;;
1416;SDS011;703;51.162;13.574;2024-03-07T11:55:08;19.13;;;16.17;;
1416;SDS011;703;51.162;13.574;2024-03-07T11:57:34;20.37;;;18.27;;
1416;SDS011;703;51.162;13.574;2024-03-07T12:00:00;20.33;;;15.30;;
1416;SDS011;703;51.162;13.574;2024-03-07T12:02:26;19.20;;;17.30;;
1416;SDS011;703;51.162;13.574;2024-03-07T12:04:53;18.90;;;17.27;;
1416;SDS011;703;51.162;13.574;2024-03-07T12:07:19;20.30;;;16.20;;
1416;SDS011;703;51.162;13.574;2024-03-07T12:09:47;17.87;;;16.00;;
1416;SDS011;703;51.162;13.574;2024-03-07T12:12:20;19.60;;;17.50;;
1416;SDS011;703;51.162;13.574;2024-03-07T12:14:47;22.30;;;15.43;;
1416;SDS011;703;51.162;13.574;2024-03-07T12:17:16;17.90;;;15.10;;
1416;SDS011;703;51.162;13.574;2024-03-07T12:19:42;21.63;;;16.53;;
1416;SDS011;703;51.162;13.574;2024-03-07T12:22:08;17.17;;;15.50;;
1416;SDS011;703;51.162;13.574;2024-03-07T12:24:41;22.20;;;16.80;;
1416;SDS011;703;51.162;13.574;2024-03-07T12:27:11;18.73;;;16.93;;
1416;SDS011;703;51.162;13.574;2024-03-07T12:29:38;18.63;;;16.57;;
1416;SDS011;703;51.162;13.574;2024-03-07T12:32:08;19.77;;;15.60;;
1416;SDS011;703;51.162;13.574;2024-03-07T12:34:38;23.97;;;19.57;;
1416;SDS011;703;51.162;13.574;2024-03-07T12:37:05;27.27;;;20.10;;
1416;SDS011;703;51.162;13.574;2024-03-07T12:39:32;22.87;;;18.70;;
1416;SDS011;703;51.162;13.574;2024-03-07T12:42:04;17.00;;;15.60;;
1416;SDS011;703;51.162;13.574;2024-03-07T12:44:42;22.60;;;19.43;;
1416;SDS011;703;51.162;13.574;2024-03-07T12:47:10;17.63;;;15.80;;
1416;SDS011;703;51.162;13.574;2024-03-07T12:49:36;16.53;;;15.13;;
1416;SDS011;703;51.162;13.574;2024-03-07T12:52:02;17.13;;;15.70;;
1416;SDS011;703;51.162;13.574;2024-03-07T12:54:29;18.73;;;17.00;;
1416;SDS011;703;51.162;13.574;2024-03-07T12:56:54;16.73;;;14.63;;
1416;SDS011;703;51.162;13.574;2024-03-07T12:59:21;19.57;;;16.33;;
1416;SDS011;703;51.162;13.574;2024-03-07T13:01:49;17.43;;;15.20;;
1416;SDS011;703;51.162;13.574;2024-03-07T13:04:15;17.53;;;16.03;;
1416;SDS011;703;51.162;13.574;2024-03-07T13:06:42;16.13;;;14.83;;
1416;SDS011;703;51.162;13.574;2024-03-07T13:09:11;15.70;;;14.23;;
1416;SDS011;703;51.162;13.574;2024-03-07T13:11:38;17.33;;;13.30;;
1416;SDS011;703;51.162;13.574;2024-03-07T13:14:11;16.00;;;13.93;;
1416;SDS011;703;51.162;13.574;2024-03-07T13:16:37;16.33;;;14.70;;
1416;SDS011;703;51.162;13.574;2024-03-07T13:19:03;15.83;;;14.50;;
1416;SDS011;703;51.162;13.574;2024-03-07T13:21:30;16.33;;;14.77;;
1416;SDS011;703;51.162;13.574;2024-03-07T13:23:56;17.80;;;15.93;;
1416;SDS011;703;51.162;13.574;2024-03-07T13:26:23;17.03;;;15.43;;
1416;SDS011;703;51.162;13.574;2024-03-07T13:28:50;16.97;;;15.37;;
1416;SDS011;703;51.162;13.574;2024-03-07T13:31:18;18.37;;;15.80;;
1416;SDS011;703;51.162;13.574;2024-03-07T13:33:44;24.67;;;16.50;;
1416;SDS011;703;51.162;13.574;2024-03-07T13:36:10;17.40;;;15.37;;
1416;SDS011;703;51.162;13.574;2024-03-07T13:38:36;15.57;;;14.20;;
1416;SDS011;703;51.162;13.574;2024-03-07T13:41:03;17.80;;;15.00;;
1416;SDS011;703;51.162;13.574;2024-03-07T13:43:29;23.47;;;15.27;;
1416;SDS011;703;51.162;13.574;2024-03-07T13:45:57;20.10;;;15.93;;
1416;SDS011;703;51.162;13.574;2024-03-07T13:48:23;19.10;;;17.20;;
1416;SDS011;703;51.162;13.574;2024-03-07T13:50:49;16.33;;;14.83;;
1416;SDS011;703;51.162;13.574;2024-03-07T13:53:17;17.27;;;15.73;;
1416;SDS011;703;51.162;13.574;2024-03-07T13:58:45;17.77;;;16.53;;
1416;SDS011;703;51.162;13.574;2024-03-07T14:01:14;21.97;;;18.43;;
1416;SDS011;703;51.162;13.574;2024-03-07T14:12:04;17.13;;;15.33;;
1416;SDS011;703;51.162;13.574;2024-03-07T14:25:43;21.33;;;15.60;;
1416;SDS011;703;51.162;13.574;2024-03-07T14:30:51;14.93;;;13.73;;
1416;SDS011;703;51.162;13.574;2024-03-07T14:33:24;16.00;;;14.47;;
1416;SDS011;703;51.162;13.574;2024-03-07T14:36:11;18.93;;;15.33;;
1416;SDS011;703;51.162;13.574;2024-03-07T14:38:54;15.13;;;13.73;;
1416;SDS011;703;51.162;13.574;2024-03-07T14:41:23;16.23;;;14.77;;
1416;SDS011;703;51.162;13.574;2024-03-07T14:43:50;19.93;;;15.20;;
1416;SDS011;703;51.162;13.574;2024-03-07T14:46:16;16.20;;;14.87;;
1416;SDS011;703;51.162;13.574;2024-03-07T14:48:43;20.80;;;18.73;;
1416;SDS011;703;51.162;13.574;2024-03-07T14:51:10;31.80;;;20.00;;
1416;SDS011;703;51.162;13.574;2024-03-07T14:53:38;21.80;;;17.90;;
1416;SDS011;703;51.162;13.574;2024-03-07T14:56:05;19.17;;;16.73;;
1416;SDS011;703;51.162;13.574;2024-03-07T14:58:31;20.87;;;15.43;;
1416;SDS011;703;51.162;13.574;2024-03-07T15:00:57;18.70;;;17.00;;
1416;SDS011;703;51.162;13.574;2024-03-07T15:03:23;18.63;;;17.03;;
1416;SDS011;703;51.162;13.574;2024-03-07T15:05:51;17.77;;;16.03;;
1416;SDS011;703;51.162;13.574;2024-03-07T15:08:17;29.37;;;26.47;;
1416;SDS011;703;51.162;13.574;2024-03-07T15:10:44;22.20;;;19.90;;
1416;SDS011;703;51.162;13.574;2024-03-07T15:13:12;17.90;;;16.30;;
1416;SDS011;703;51.162;13.574;2024-03-07T15:15:39;19.97;;;17.87;;
1416;SDS011;703;51.162;13.574;2024-03-07T15:18:05;18.70;;;16.40;;
1416;SDS011;703;51.162;13.574;2024-03-07T15:20:31;19.07;;;17.23;;
1416;SDS011;703;51.162;13.574;2024-03-07T15:23:00;16.13;;;14.60;;
1416;SDS011;703;51.162;13.574;2024-03-07T15:25:28;21.30;;;19.20;;
1416;SDS011;703;51.162;13.574;2024-03-07T15:27:55;19.27;;;17.70;;
1416;SDS011;703;51.162;13.574;2024-03-07T15:30:21;20.83;;;18.93;;
1416;SDS011;703;51.162;13.574;2024-03-07T15:32:49;17.13;;;15.40;;
1416;SDS011;703;51.162;13.574;2024-03-07T15:35:15;18.57;;;16.27;;
1416;SDS011;703;51.162;13.574;2024-03-07T15:37:47;21.53;;;17.50;;
1416;SDS011;703;51.162;13.574;2024-03-07T15:40:14;18.40;;;16.80;;
1416;SDS011;703;51.162;13.574;2024-03-07T15:42:41;21.67;;;19.50;;
1416;SDS011;703;51.162;13.574;2024-03-07T15:45:08;19.47;;;17.67;;
1416;SDS011;703;51.162;13.574;2024-03-07T15:47:45;17.93;;;16.30;;
1416;SDS011;703;51.162;13.574;2024-03-07T15:50:12;17.53;;;16.03;;
1416;SDS011;703;51.162;13.574;2024-03-07T15:52:38;17.67;;;14.60;;
1416;SDS011;703;51.162;13.574;2024-03-07T15:55:08;20.20;;;16.50;;
1416;SDS011;703;51.162;13.574;2024-03-07T15:57:49;18.23;;;16.50;;
1416;SDS011;703;51.162;13.574;2024-03-07T16:00:18;18.17;;;16.57;;
1416;SDS011;703;51.162;13.574;2024-03-07T16:05:22;22.50;;;16.30;;
1416;SDS011;703;51.162;13.574;2024-03-07T16:07:52;20.50;;;17.20;;
1416;SDS011;703;51.162;13.574;2024-03-07T16:10:18;20.63;;;17.23;;
1416;SDS011;703;51.162;13.574;2024-03-07T16:12:44;21.20;;;19.10;;
1416;SDS011;703;51.162;13.574;2024-03-07T16:15:11;19.77;;;17.83;;
1416;SDS011;703;51.162;13.574;2024-03-07T16:17:37;22.97;;;19.90;;
1416;SDS011;703;51.162;13.574;2024-03-07T16:20:03;21.23;;;19.27;;
1416;SDS011;703;51.162;13.574;2024-03-07T16:22:32;17.87;;;16.37;;
1416;SDS011;703;51.162;13.574;2024-03-07T16:24:57;20.10;;;18.20;;
1416;SDS011;703;51.162;13.574;2024-03-07T16:27:25;19.87;;;18.07;;
1416;SDS011;703;51.162;13.574;2024-03-07T16:29:51;22.30;;;20.33;;
1416;SDS011;703;51.162;13.574;2024-03-07T16:32:17;20.73;;;18.80;;
1416;SDS011;703;51.162;13.574;2024-03-07T16:34:43;20.40;;;18.60;;
1416;SDS011;703;51.162;13.574;2024-03-07T16:37:10;21.40;;;18.90;;
1416;SDS011;703;51.162;13.574;2024-03-07T16:39:38;22.90;;;19.53;;
1416;SDS011;703;51.162;13.574;2024-03-07T16:42:08;22.17;;;20.13;;
1416;SDS011;703;51.162;13.574;2024-03-07T16:44:35;31.10;;;19.70;;
1416;SDS011;703;51.162;13.574;2024-03-07T16:47:03;18.90;;;16.70;;
1416;SDS011;703;51.162;13.574;2024-03-07T16:49:30;19.90;;;16.47;;
1416;SDS011;703;51.162;13.574;2024-03-07T16:51:56;16.83;;;15.23;;
1416;SDS011;703;51.162;13.574;2024-03-07T16:54:22;27.17;;;16.70;;
1416;SDS011;703;51.162;13.574;2024-03-07T16:56:48;22.97;;;18.80;;
1416;SDS011;703;51.162;13.574;2024-03-07T16:59:14;23.67;;;15.17;;
1416;SDS011;703;51.162;13.574;2024-03-07T17:01:41;25.20;;;13.60;;
1416;SDS011;703;51.162;13.574;2024-03-07T17:04:10;20.23;;;15.87;;
1416;SDS011;703;51.162;13.574;2024-03-07T17:06:36;26.43;;;15.83;;
1416;SDS011;703;51.162;13.574;2024-03-07T17:09:01;16.27;;;13.43;;
1416;SDS011;703;51.162;13.574;2024-03-07T17:11:27;16.13;;;14.67;;
1416;SDS011;703;51.162;13.574;2024-03-07T17:13:54;19.77;;;14.30;;
1416;SDS011;703;51.162;13.574;2024-03-07T17:16:20;26.93;;;18.30;;
1416;SDS011;703;51.162;13.574;2024-03-07T17:18:45;21.73;;;17.13;;
1416;SDS011;703;51.162;13.574;2024-03-07T17:21:11;27.57;;;18.67;;
1416;SDS011;703;51.162;13.574;2024-03-07T17:23:38;26.23;;;17.30;;
1416;SDS011;703;51.162;13.574;2024-03-07T17:26:04;18.20;;;16.47;;
1416;SDS011;703;51.162;13.574;2024-03-07T17:28:30;16.90;;;13.80;;
1416;SDS011;703;51.162;13.574;2024-03-07T17:30:56;25.53;;;20.07;;
1416;SDS011;703;51.162;13.574;2024-03-07T17:33:22;18.43;;;13.60;;
1416;SDS011;703;51.162;13.574;2024-03-07T17:35:51;18.43;;;16.63;;
1416;SDS011;703;51.162;13.574;2024-03-07T17:38:17;17.80;;;16.00;;
1416;SDS011;703;51.162;13.574;2024-03-07T17:40:45;22.13;;;16.47;;
1416;SDS011;703;51.162;13.574;2024-03-07T17:43:11;22.50;;;14.73;;
1416;SDS011;703;51.162;13.574;2024-03-07T17:45:37;23.40;;;15.67;;
1416;SDS011;703;51.162;13.574;2024-03-07T17:48:03;26.13;;;15.00;;
1416;SDS011;703;51.162;13.574;2024-03-07T17:50:30;20.73;;;15.27;;
1416;SDS011;703;51.162;13.574;2024-03-07T17:52:57;18.13;;;16.23;;
1416;SDS011;703;51.162;13.574;2024-03-07T17:55:25;17.07;;;13.37;;
1416;SDS011;703;51.162;13.574;2024-03-07T17:57:52;24.37;;;16.60;;
1416;SDS011;703;51.162;13.574;2024-03-07T18:00:18;15.53;;;14.00;;
1416;SDS011;703;51.162;13.574;2024-03-07T18:02:54;18.10;;;16.53;;
1416;SDS011;703;51.162;13.574;2024-03-07T18:05:20;21.77;;;15.47;;
1416;SDS011;703;51.162;13.574;2024-03-07T18:07:46;20.43;;;15.13;;
1416;SDS011;703;51.162;13.574;2024-03-07T18:10:13;20.17;;;15.50;;
1416;SDS011;703;51.162;13.574;2024-03-07T18:12:50;16.30;;;14.60;;
1416;SDS011;703;51.162;13.574;2024-03-07T18:15:17;20.70;;;15.27;;
1416;SDS011;703;51.162;13.574;2024-03-07T18:17:43;18.80;;;12.53;;